createdAt,value
2022-12-17T00:02:43.267Z,1.10
2022-12-17T00:05:28.491Z,1.10
2022-12-17T00:08:17.436Z,1.20
2022-12-17T00:11:03.953Z,1.20
2022-12-17T00:13:49.454Z,1.10
2022-12-17T00:16:35.088Z,1.10
2022-12-17T00:19:22.200Z,1.10
2022-12-17T00:22:06.623Z,1.10
2022-12-17T00:24:51.871Z,1.10
2022-12-17T00:27:37.278Z,1.00
2022-12-17T00:30:24.651Z,1.00
2022-12-17T00:33:10.063Z,1.10
2022-12-17T00:35:56.683Z,1.10
2022-12-17T00:38:41.979Z,1.10
2022-12-17T00:41:27.617Z,1.10
2022-12-17T00:44:13.164Z,1.10
2022-12-17T00:46:58.670Z,1.00
2022-12-17T00:49:44.130Z,1.10
2022-12-17T00:52:30.791Z,1.00
2022-12-17T00:55:16.121Z,1.10
2022-12-17T00:58:01.427Z,1.00
2022-12-17T01:00:46.845Z,0.90
2022-12-17T01:03:32.424Z,0.90
2022-12-17T01:06:20.772Z,0.90
2022-12-17T01:09:07.495Z,0.90
2022-12-17T01:11:56.395Z,0.90
2022-12-17T01:14:42.984Z,0.90
2022-12-17T01:17:28.478Z,0.90
2022-12-17T01:20:13.996Z,0.90
2022-12-17T01:22:59.557Z,0.90
2022-12-17T01:25:46.455Z,0.90
2022-12-17T01:28:32.068Z,0.90
2022-12-17T01:31:17.473Z,0.90
2022-12-17T01:34:03.031Z,0.80
2022-12-17T01:36:48.326Z,0.80
2022-12-17T01:39:33.414Z,0.80
2022-12-17T01:42:20.455Z,0.80
2022-12-17T01:45:08.843Z,0.80
2022-12-17T01:47:58.330Z,0.80
2022-12-17T01:50:46.932Z,0.80
2022-12-17T01:53:35.787Z,0.80
2022-12-17T01:56:23.291Z,0.80
2022-12-17T01:59:10.714Z,0.80
2022-12-17T02:01:56.388Z,0.80
2022-12-17T02:04:42.770Z,0.80
2022-12-17T02:07:46.439Z,0.80
2022-12-17T02:10:42.284Z,0.80
2022-12-17T02:13:34.364Z,0.80
2022-12-17T02:16:27.581Z,0.80
2022-12-17T02:19:17.887Z,0.70
2022-12-17T02:22:09.544Z,0.70
2022-12-17T02:25:02.467Z,0.70
2022-12-17T02:27:49.431Z,0.70
2022-12-17T02:30:35.251Z,0.70
2022-12-17T02:33:21.282Z,0.70
2022-12-17T02:36:11.923Z,0.70
2022-12-17T02:38:57.152Z,0.70
2022-12-17T02:41:46.209Z,0.70
2022-12-17T02:44:35.579Z,0.70
2022-12-17T02:47:24.819Z,0.70
2022-12-17T02:50:10.931Z,0.70
2022-12-17T02:53:00.707Z,0.70
2022-12-17T02:55:46.261Z,0.70
2022-12-17T02:58:31.577Z,0.70
2022-12-17T03:01:18.703Z,0.70
2022-12-17T03:04:04.094Z,0.60
2022-12-17T03:06:49.958Z,0.60
2022-12-17T03:09:35.494Z,0.60
2022-12-17T03:12:20.696Z,0.60
2022-12-17T03:15:06.295Z,0.60
2022-12-17T03:17:53.014Z,0.50
2022-12-17T03:20:38.433Z,0.50
2022-12-17T03:23:34.265Z,0.50
2022-12-17T03:26:21.405Z,0.50
2022-12-17T03:29:06.939Z,0.50
2022-12-17T03:31:52.524Z,0.50
2022-12-17T03:34:39.083Z,0.40
2022-12-17T03:37:24.826Z,0.40
2022-12-17T03:40:10.419Z,0.40
2022-12-17T03:42:55.877Z,0.40
2022-12-17T03:45:41.503Z,0.40
2022-12-17T03:48:29.349Z,0.40
2022-12-17T03:51:16.635Z,0.40
2022-12-17T03:54:02.422Z,0.40
2022-12-17T03:56:47.842Z,0.40
2022-12-17T03:59:33.263Z,0.40
2022-12-17T04:02:19.272Z,0.30
2022-12-17T04:05:04.736Z,0.30
2022-12-17T04:07:52.169Z,0.30
2022-12-17T04:10:37.543Z,0.30
2022-12-17T04:13:23.423Z,0.30
2022-12-17T04:16:08.823Z,0.30
2022-12-17T04:18:53.995Z,0.20
2022-12-17T04:21:39.716Z,0.20
2022-12-17T04:24:26.692Z,0.20
2022-12-17T04:27:12.027Z,0.20
2022-12-17T04:29:57.197Z,0.20
2022-12-17T04:32:42.340Z,0.10
2022-12-17T04:35:27.707Z,0.10
2022-12-17T04:38:12.955Z,0.20
2022-12-17T04:40:59.485Z,0.20
2022-12-17T04:43:44.913Z,0.20
2022-12-17T04:46:30.679Z,0.10
2022-12-17T04:49:16.454Z,0.20
2022-12-17T04:52:01.864Z,0.10
2022-12-17T04:54:47.062Z,0.20
2022-12-17T04:57:34.015Z,0.10
2022-12-17T05:00:19.438Z,0.10
2022-12-17T05:03:04.972Z,0.10
2022-12-17T05:05:50.715Z,0.10
2022-12-17T05:08:41.227Z,0.10
2022-12-17T05:11:26.784Z,0.10
2022-12-17T05:14:13.503Z,0.10
2022-12-17T05:16:59.097Z,0.10
2022-12-17T05:19:44.433Z,0.10
2022-12-17T05:22:29.675Z,0.10
2022-12-17T05:25:15.181Z,0.00
2022-12-17T05:28:00.868Z,0.00
2022-12-17T05:30:47.890Z,0.10
2022-12-17T05:33:33.296Z,0.10
2022-12-17T05:36:19.296Z,0.10
2022-12-17T05:39:06.136Z,0.10
2022-12-17T05:41:51.560Z,0.20
2022-12-17T05:44:37.037Z,0.20
2022-12-17T05:47:24.403Z,0.10
2022-12-17T05:50:09.997Z,0.10
2022-12-17T05:52:55.282Z,0.20
2022-12-17T05:55:40.606Z,0.10
2022-12-17T05:58:28.603Z,0.00
2022-12-17T06:01:14.953Z,0.00
2022-12-17T06:04:02.201Z,0.20
2022-12-17T06:06:47.941Z,0.30
2022-12-17T06:09:33.643Z,0.20
2022-12-17T06:12:24.508Z,0.10
2022-12-17T06:15:24.635Z,0.00
2022-12-17T06:18:16.948Z,-0.10
2022-12-17T06:21:04.326Z,-0.20
2022-12-17T06:23:50.068Z,-0.10
2022-12-17T06:26:35.822Z,-0.10
2022-12-17T06:29:23.310Z,-0.10
2022-12-17T06:32:08.875Z,0.10
2022-12-17T06:34:56.584Z,0.20
2022-12-17T06:37:43.211Z,0.20
2022-12-17T06:40:30.060Z,0.20
2022-12-17T06:43:15.871Z,0.30
2022-12-17T06:46:01.462Z,0.30
2022-12-17T06:48:47.152Z,0.30
2022-12-17T06:51:32.481Z,0.10
2022-12-17T06:54:19.278Z,0.00
2022-12-17T06:57:04.579Z,0.00
2022-12-17T06:59:50.130Z,0.00
2022-12-17T07:02:35.650Z,-0.10
2022-12-17T07:05:21.346Z,-0.20
2022-12-17T07:08:06.548Z,-0.20
2022-12-17T07:10:53.229Z,-0.10
2022-12-17T07:13:39.970Z,0.10
2022-12-17T07:16:25.995Z,0.20
2022-12-17T07:19:13.844Z,0.30
2022-12-17T07:21:59.298Z,0.20
2022-12-17T07:24:44.848Z,0.00
2022-12-17T07:27:31.626Z,-0.10
2022-12-17T07:30:17.112Z,-0.20
2022-12-17T07:33:02.658Z,-0.30
2022-12-17T07:35:47.905Z,-0.30
2022-12-17T07:38:33.077Z,-0.30
2022-12-17T07:41:18.783Z,-0.30
2022-12-17T07:44:05.371Z,-0.30
2022-12-17T07:46:50.735Z,-0.30
2022-12-17T07:49:36.223Z,-0.30
2022-12-17T07:52:21.545Z,-0.20
2022-12-17T07:55:06.902Z,-0.20
2022-12-17T07:57:52.137Z,-0.20
2022-12-17T08:00:43.422Z,-0.20
2022-12-17T08:03:45.850Z,-0.20
2022-12-17T08:06:31.785Z,-0.20
2022-12-17T08:09:17.197Z,-0.10
2022-12-17T08:12:02.583Z,-0.10
2022-12-17T08:14:47.851Z,-0.10
2022-12-17T08:17:34.851Z,0.00
2022-12-17T08:20:34.647Z,0.00
2022-12-17T08:23:21.077Z,0.00
2022-12-17T08:26:06.816Z,0.00
2022-12-17T08:28:52.313Z,0.10
2022-12-17T08:31:38.238Z,0.10
2022-12-17T08:34:25.107Z,0.10
2022-12-17T08:37:10.851Z,0.10
2022-12-17T08:39:56.835Z,0.10
2022-12-17T08:42:42.386Z,0.10
2022-12-17T08:45:28.447Z,0.20
2022-12-17T08:48:21.694Z,0.20
2022-12-17T08:51:08.705Z,0.20
2022-12-17T08:53:54.148Z,0.20
2022-12-17T08:56:39.758Z,0.20
2022-12-17T08:59:25.057Z,0.20
2022-12-17T09:02:10.531Z,0.30
2022-12-17T09:04:56.445Z,0.30
2022-12-17T09:07:45.333Z,0.30
2022-12-17T09:10:30.937Z,0.40
2022-12-17T09:13:20.670Z,0.40
2022-12-17T09:16:10.962Z,0.40
2022-12-17T09:18:56.340Z,0.50
2022-12-17T09:21:41.959Z,0.50
2022-12-17T09:24:29.752Z,0.60
2022-12-17T09:27:15.248Z,0.60
2022-12-17T09:30:00.774Z,0.60
2022-12-17T09:32:45.992Z,0.60
2022-12-17T09:35:30.395Z,0.70
2022-12-17T09:38:16.349Z,0.70
2022-12-17T09:41:09.197Z,0.70
2022-12-17T09:44:03.474Z,0.60
2022-12-17T09:46:56.361Z,0.80
2022-12-17T09:49:43.347Z,0.90
2022-12-17T09:52:38.109Z,1.00
2022-12-17T09:55:36.180Z,1.20
2022-12-17T09:58:23.691Z,1.20
2022-12-17T10:01:35.353Z,1.30
2022-12-17T10:04:23.963Z,1.60
2022-12-17T10:07:09.384Z,1.80
2022-12-17T10:09:55.452Z,2.00
2022-12-17T10:12:42.563Z,2.10
2022-12-17T10:15:33.133Z,2.10
2022-12-17T10:18:30.331Z,1.80
2022-12-17T10:21:17.740Z,1.60
2022-12-17T10:24:03.146Z,1.30
2022-12-17T10:26:50.641Z,1.10
2022-12-17T10:29:40.175Z,1.00
2022-12-17T10:32:38.712Z,1.00
2022-12-17T10:35:27.108Z,1.00
2022-12-17T10:38:12.449Z,1.10
2022-12-17T10:41:03.611Z,1.10
2022-12-17T10:43:51.196Z,1.20
2022-12-17T10:46:44.796Z,1.20
2022-12-17T10:49:34.718Z,1.30
2022-12-17T10:52:22.920Z,1.40
2022-12-17T10:55:20.651Z,1.30
2022-12-17T10:58:08.651Z,1.20
2022-12-17T11:00:57.787Z,1.20
2022-12-17T11:03:52.626Z,1.30
2022-12-17T11:06:45.736Z,1.20
2022-12-17T11:09:42.959Z,1.20
2022-12-17T11:12:31.270Z,1.30
2022-12-17T11:15:22.744Z,1.10
2022-12-17T11:18:11.571Z,1.00
2022-12-17T11:21:05.871Z,1.00
2022-12-17T11:23:54.438Z,0.90
2022-12-17T11:26:40.220Z,0.90
2022-12-17T11:29:31.093Z,0.80
2022-12-17T11:32:40.460Z,0.70
2022-12-17T11:35:32.719Z,0.70
2022-12-17T11:38:27.437Z,0.40
2022-12-17T11:41:18.799Z,0.20
2022-12-17T11:44:12.786Z,-0.10
2022-12-17T11:47:03.612Z,-0.40
2022-12-17T11:49:59.390Z,-0.70
2022-12-17T11:52:51.919Z,-0.80
2022-12-17T11:55:44.448Z,-0.70
2022-12-17T11:58:39.095Z,-0.70
2022-12-17T12:01:32.883Z,-0.70
2022-12-17T12:04:30.851Z,-0.70
2022-12-17T12:07:27.556Z,-0.80
2022-12-17T12:10:19.002Z,-0.90
2022-12-17T12:13:23.872Z,-0.70
2022-12-17T12:16:21.971Z,-0.70
2022-12-17T12:19:15.613Z,-0.90
2022-12-17T12:22:09.587Z,-0.90
2022-12-17T12:25:16.520Z,-1.00
2022-12-17T12:28:13.231Z,-1.00
2022-12-17T12:31:01.510Z,-0.90
2022-12-17T12:33:56.175Z,-0.70
2022-12-17T12:36:45.139Z,-0.60
2022-12-17T12:39:36.301Z,-0.60
2022-12-17T12:42:42.504Z,-0.90
2022-12-17T12:45:49.876Z,-0.90
2022-12-17T12:48:45.260Z,-1.10
2022-12-17T12:51:36.847Z,-1.10
2022-12-17T12:54:44.205Z,-1.10
2022-12-17T12:58:02.733Z,-1.10
2022-12-17T13:00:55.844Z,-1.10
2022-12-17T13:03:47.262Z,-1.00
2022-12-17T13:06:41.276Z,-1.00
2022-12-17T13:09:22.675Z,-1.00
2022-12-17T13:11:55.981Z,-0.80
2022-12-17T13:14:29.290Z,-0.60
2022-12-17T13:17:03.405Z,-0.40
2022-12-17T13:19:38.172Z,-0.20
2022-12-17T13:22:28.600Z,0.10
2022-12-17T13:25:10.291Z,0.30
2022-12-17T13:27:40.965Z,0.60
2022-12-17T13:30:39.552Z,0.80
2022-12-17T13:33:26.581Z,0.90
2022-12-17T13:36:05.574Z,1.10
2022-12-17T13:38:46.585Z,1.20
2022-12-17T13:41:16.576Z,1.40
2022-12-17T13:43:46.656Z,1.40
2022-12-17T13:46:23.534Z,1.40
2022-12-17T13:48:57.531Z,1.40
2022-12-17T13:51:26.454Z,1.40
2022-12-17T13:53:58.624Z,1.40
2022-12-17T13:56:29.067Z,1.30
2022-12-17T13:59:03.145Z,1.30
2022-12-17T14:01:44.652Z,1.40
2022-12-17T14:04:21.970Z,1.40
2022-12-17T14:06:50.984Z,1.30
2022-12-17T14:09:23.574Z,1.10
2022-12-17T14:12:09.383Z,0.90
2022-12-17T14:14:42.027Z,0.60
2022-12-17T14:17:18.439Z,0.50
2022-12-17T14:19:46.584Z,0.40
2022-12-17T14:22:20.054Z,0.50
2022-12-17T14:24:49.467Z,0.50
2022-12-17T14:27:25.866Z,0.60
2022-12-17T14:29:54.155Z,0.70
2022-12-17T14:32:27.291Z,0.70
2022-12-17T14:35:00.410Z,0.80
2022-12-17T14:37:29.584Z,0.90
2022-12-17T14:40:03.987Z,0.80
2022-12-17T14:42:36.490Z,0.90
2022-12-17T14:45:06.338Z,0.80
2022-12-17T14:47:36.434Z,0.70
2022-12-17T14:50:25.053Z,0.60
2022-12-17T14:52:54.679Z,0.50
2022-12-17T14:55:30.613Z,0.50
2022-12-17T14:58:19.908Z,0.60
2022-12-17T15:00:52.233Z,0.60
2022-12-17T15:03:23.858Z,0.60
2022-12-17T15:05:55.133Z,0.60
2022-12-17T15:08:23.347Z,0.60
2022-12-17T15:10:52.853Z,0.70
2022-12-17T15:13:20.835Z,0.70
2022-12-17T15:15:48.827Z,0.70
2022-12-17T15:18:16.845Z,0.70
2022-12-17T15:20:45.060Z,0.70
2022-12-17T15:23:17.724Z,0.70
2022-12-17T15:25:47.061Z,0.70
2022-12-17T15:28:17.481Z,0.80
2022-12-17T15:30:45.839Z,0.80
2022-12-17T15:33:14.413Z,0.80
2022-12-17T15:35:42.970Z,0.70
2022-12-17T15:38:12.849Z,0.70
2022-12-17T15:40:41.088Z,0.70
2022-12-17T15:43:12.887Z,0.60
2022-12-17T15:45:43.993Z,0.60
2022-12-17T15:48:13.023Z,0.80
2022-12-17T15:50:41.608Z,0.80
2022-12-17T15:53:10.009Z,0.80
2022-12-17T15:55:38.307Z,0.70
2022-12-17T15:58:07.120Z,0.70
2022-12-17T16:00:36.868Z,0.70
2022-12-17T16:03:06.287Z,0.70
2022-12-17T16:05:34.679Z,0.70
2022-12-17T16:08:03.879Z,0.60
2022-12-17T16:10:32.087Z,0.60
2022-12-17T16:12:59.960Z,0.60
2022-12-17T16:15:28.220Z,0.60
2022-12-17T16:17:56.468Z,0.60
2022-12-17T16:20:25.886Z,0.70
2022-12-17T16:22:53.997Z,0.70
2022-12-17T16:25:21.963Z,0.70
2022-12-17T16:27:49.913Z,0.60
2022-12-17T16:30:17.933Z,0.60
2022-12-17T16:32:45.986Z,0.60
2022-12-17T16:35:14.203Z,0.60
2022-12-17T16:37:43.660Z,0.50
2022-12-17T16:40:12.635Z,0.50
2022-12-17T16:42:40.680Z,0.40
2022-12-17T16:45:09.714Z,0.40
2022-12-17T16:47:37.713Z,0.40
2022-12-17T16:50:06.687Z,0.40
2022-12-17T16:52:35.377Z,0.40
2022-12-17T16:55:05.099Z,0.50
2022-12-17T16:57:33.011Z,0.40
2022-12-17T17:00:00.912Z,0.40
2022-12-17T17:02:29.109Z,0.40
2022-12-17T17:04:57.227Z,0.40
2022-12-17T17:07:25.245Z,0.40
2022-12-17T17:09:53.172Z,0.40
2022-12-17T17:12:23.401Z,0.40
2022-12-17T17:14:51.481Z,0.30
2022-12-17T17:17:19.406Z,0.30
2022-12-17T17:20:08.036Z,0.30
2022-12-17T17:22:36.148Z,0.30
2022-12-17T17:25:05.008Z,0.30
2022-12-17T17:27:34.321Z,0.30
2022-12-17T17:30:03.863Z,0.40
2022-12-17T17:32:32.354Z,0.40
2022-12-17T17:35:00.458Z,0.40
2022-12-17T17:37:29.021Z,0.50
2022-12-17T17:39:57.089Z,0.50
2022-12-17T17:42:25.078Z,0.50
2022-12-17T17:44:54.485Z,0.40
2022-12-17T17:47:22.463Z,0.40
2022-12-17T17:49:50.380Z,0.50
2022-12-17T17:52:18.619Z,0.50
2022-12-17T17:54:48.580Z,0.50
2022-12-17T17:57:16.498Z,0.50
2022-12-17T17:59:44.397Z,0.50
2022-12-17T18:02:14.078Z,0.50
2022-12-17T18:04:42.241Z,0.50
2022-12-17T18:07:26.966Z,0.50
2022-12-17T18:09:56.042Z,0.50
2022-12-17T18:12:41.652Z,0.50
2022-12-17T18:15:15.225Z,0.50
2022-12-17T18:17:46.625Z,0.50
2022-12-17T18:20:15.174Z,0.50
2022-12-17T18:22:45.937Z,0.50
2022-12-17T18:25:14.589Z,0.50
2022-12-17T18:27:42.476Z,0.50
2022-12-17T18:30:11.322Z,0.40
2022-12-17T18:32:39.174Z,0.40
2022-12-17T18:35:09.941Z,0.40
2022-12-17T18:37:38.298Z,0.40
2022-12-17T18:40:07.340Z,0.40
2022-12-17T18:42:52.937Z,0.40
2022-12-17T18:45:20.893Z,0.30
2022-12-17T18:47:49.075Z,0.30
2022-12-17T18:50:18.720Z,0.30
2022-12-17T18:52:46.751Z,0.20
2022-12-17T18:55:14.729Z,0.20
2022-12-17T18:57:42.701Z,0.30
2022-12-17T19:00:11.897Z,0.30
2022-12-17T19:02:39.923Z,0.30
2022-12-17T19:05:08.461Z,0.30
2022-12-17T19:07:37.919Z,0.30
2022-12-17T19:10:06.776Z,0.30
2022-12-17T19:12:34.756Z,0.40
2022-12-17T19:15:02.894Z,0.30
2022-12-17T19:17:30.766Z,0.30
2022-12-17T19:19:58.791Z,0.40
2022-12-17T19:22:26.762Z,0.40
2022-12-17T19:24:56.271Z,0.40
2022-12-17T19:27:24.540Z,0.30
2022-12-17T19:29:52.833Z,0.30
2022-12-17T19:32:20.742Z,0.30
2022-12-17T19:34:48.723Z,0.20
2022-12-17T19:37:17.075Z,0.10
2022-12-17T19:39:45.169Z,0.30
2022-12-17T19:42:24.956Z,0.40
2022-12-17T19:44:54.969Z,0.30
2022-12-17T19:47:23.841Z,0.30
2022-12-17T19:49:51.822Z,0.30
2022-12-17T19:52:19.775Z,0.30
2022-12-17T19:54:47.736Z,0.30
2022-12-17T19:57:17.073Z,0.30
2022-12-17T19:59:45.158Z,0.40
2022-12-17T20:02:15.745Z,0.50
2022-12-17T20:04:43.941Z,0.40
2022-12-17T20:07:11.979Z,0.40
2022-12-17T20:09:40.364Z,0.30
2022-12-17T20:12:08.605Z,0.40
2022-12-17T20:14:38.300Z,0.50
2022-12-17T20:17:06.933Z,0.50
2022-12-17T20:19:35.324Z,0.40
2022-12-17T20:22:05.245Z,0.20
2022-12-17T20:24:33.692Z,0.20
2022-12-17T20:27:02.247Z,0.20
2022-12-17T20:29:30.928Z,0.20
2022-12-17T20:32:08.503Z,0.20
2022-12-17T20:34:36.535Z,0.20
2022-12-17T20:37:04.673Z,0.20
2022-12-17T20:39:32.862Z,0.20
2022-12-17T20:42:00.922Z,0.30
2022-12-17T20:44:28.996Z,0.20
2022-12-17T20:46:56.912Z,0.20
2022-12-17T20:49:26.264Z,0.20
2022-12-17T20:51:54.196Z,0.30
2022-12-17T20:54:22.329Z,0.30
2022-12-17T20:56:50.293Z,0.50
2022-12-17T20:59:20.271Z,0.60
2022-12-17T21:01:55.589Z,0.70
2022-12-17T21:04:25.994Z,0.80
2022-12-17T21:06:54.358Z,0.60
2022-12-17T21:09:25.351Z,0.50
2022-12-17T21:11:53.785Z,0.40
2022-12-17T21:14:21.705Z,0.30
2022-12-17T21:16:49.972Z,0.50
2022-12-17T21:19:20.180Z,0.40
2022-12-17T21:21:49.788Z,0.40
2022-12-17T21:24:18.180Z,0.40
2022-12-17T21:26:47.749Z,0.40
2022-12-17T21:29:16.622Z,0.50
2022-12-17T21:31:47.226Z,0.40
2022-12-17T21:34:18.025Z,0.50
2022-12-17T21:37:09.640Z,0.50
2022-12-17T21:39:59.904Z,0.40
2022-12-17T21:43:05.161Z,0.40
2022-12-17T21:45:37.857Z,0.30
2022-12-17T21:48:07.620Z,0.30
2022-12-17T21:50:43.058Z,0.40
2022-12-17T21:53:13.895Z,0.60
2022-12-17T21:55:42.045Z,0.50
2022-12-17T21:58:11.315Z,0.40
2022-12-17T22:00:39.282Z,0.50
2022-12-17T22:03:07.356Z,0.60
2022-12-17T22:05:37.231Z,0.40
2022-12-17T22:08:05.565Z,0.30
2022-12-17T22:10:50.531Z,0.30
2022-12-17T22:13:36.938Z,0.20
2022-12-17T22:16:07.035Z,0.10
2022-12-17T22:18:35.108Z,0.20
2022-12-17T22:21:03.468Z,0.10
2022-12-17T22:23:31.426Z,0.10
2022-12-17T22:26:01.133Z,0.10
2022-12-17T22:28:29.041Z,0.20
2022-12-17T22:31:14.627Z,0.20
2022-12-17T22:34:24.696Z,0.30
2022-12-17T22:38:43.142Z,0.30
2022-12-17T22:42:41.964Z,0.30
2022-12-17T22:44:35.707Z,0.20
2022-12-17T22:45:27.118Z,0.40
2022-12-17T22:47:57.664Z,0.30
2022-12-17T22:50:34.749Z,0.30
2022-12-17T22:53:10.720Z,0.30
2022-12-17T22:55:38.950Z,0.40
2022-12-17T22:58:08.636Z,0.40
2022-12-17T23:00:37.485Z,0.20
2022-12-17T23:03:06.001Z,0.20
2022-12-17T23:05:34.491Z,0.10
2022-12-17T23:08:02.599Z,0.10
2022-12-17T23:10:30.586Z,0.10
2022-12-17T23:12:58.767Z,0.20
2022-12-17T23:15:30.926Z,0.00
2022-12-17T23:18:01.289Z,0.00
2022-12-17T23:20:32.095Z,0.00
2022-12-17T23:23:00.819Z,0.00
2022-12-17T23:25:29.946Z,0.10
2022-12-17T23:27:57.898Z,0.10
2022-12-17T23:30:25.918Z,0.00
2022-12-17T23:32:55.432Z,0.10
2022-12-17T23:35:23.429Z,0.10
2022-12-17T23:37:51.399Z,0.10
2022-12-17T23:40:19.454Z,0.00
2022-12-17T23:42:47.456Z,0.00
2022-12-17T23:45:15.584Z,0.20
2022-12-17T23:47:43.547Z,0.10
2022-12-17T23:50:13.111Z,0.10
2022-12-17T23:52:41.188Z,0.00
2022-12-17T23:55:11.425Z,0.00
2022-12-17T23:57:39.400Z,0.00
